createdAt,value
2018-08-30T00:00:14.388Z,55.90
2018-08-30T00:02:40.846Z,55.40
2018-08-30T00:05:07.309Z,55.40
2018-08-30T00:07:33.880Z,55.50
2018-08-30T00:10:00.422Z,55.50
2018-08-30T00:12:26.872Z,55.50
2018-08-30T00:14:53.365Z,55.50
2018-08-30T00:17:19.847Z,55.50
2018-08-30T00:19:46.389Z,55.50
2018-08-30T00:22:12.921Z,55.50
2018-08-30T00:24:40.072Z,55.50
2018-08-30T00:27:06.835Z,55.60
2018-08-30T00:29:33.284Z,55.60
2018-08-30T00:31:59.816Z,55.50
2018-08-30T00:34:26.536Z,55.60
2018-08-30T00:36:53.010Z,55.50
2018-08-30T00:39:19.562Z,55.60
2018-08-30T00:41:46.034Z,55.50
2018-08-30T00:44:12.492Z,55.90
2018-08-30T00:46:38.971Z,55.50
2018-08-30T00:49:06.738Z,55.50
2018-08-30T00:51:33.177Z,55.50
2018-08-30T00:53:59.634Z,55.50
2018-08-30T00:56:26.054Z,55.50
2018-08-30T00:58:52.534Z,55.40
2018-08-30T01:01:19.010Z,55.50
2018-08-30T01:03:45.501Z,55.50
2018-08-30T01:06:11.998Z,55.50
2018-08-30T01:08:38.464Z,55.50
2018-08-30T01:11:05.022Z,55.50
2018-08-30T01:13:31.470Z,55.50
2018-08-30T01:15:57.904Z,55.50
2018-08-30T01:18:24.343Z,55.40
2018-08-30T01:20:50.807Z,55.40
2018-08-30T01:23:17.261Z,55.40
2018-08-30T01:25:43.720Z,55.40
2018-08-30T01:28:10.171Z,55.40
2018-08-30T01:30:36.617Z,55.40
2018-08-30T01:33:03.065Z,55.50
2018-08-30T01:35:29.524Z,55.50
2018-08-30T01:37:55.991Z,55.40
2018-08-30T01:40:22.488Z,55.40
2018-08-30T01:42:49.021Z,55.40
2018-08-30T01:45:15.481Z,55.50
2018-08-30T01:47:42.435Z,55.40
2018-08-30T01:50:08.908Z,55.40
2018-08-30T01:52:35.339Z,55.50
2018-08-30T01:55:01.833Z,55.50
2018-08-30T01:57:28.337Z,55.60
2018-08-30T01:59:54.783Z,55.50
2018-08-30T02:02:21.251Z,55.50
2018-08-30T02:04:47.786Z,55.50
2018-08-30T02:07:14.299Z,55.50
2018-08-30T02:09:40.763Z,55.50
2018-08-30T02:12:07.269Z,55.40
2018-08-30T02:14:33.736Z,55.50
2018-08-30T02:17:01.018Z,55.40
2018-08-30T02:19:27.773Z,55.50
2018-08-30T02:21:54.213Z,55.40
2018-08-30T02:24:20.853Z,55.50
2018-08-30T02:26:47.287Z,55.50
2018-08-30T02:29:13.823Z,55.50
2018-08-30T02:31:40.423Z,55.50
2018-08-30T02:34:06.885Z,55.40
2018-08-30T02:36:33.377Z,55.40
2018-08-30T02:38:59.943Z,55.40
2018-08-30T02:41:26.395Z,55.40
2018-08-30T02:43:52.994Z,55.40
2018-08-30T02:46:19.483Z,55.40
2018-08-30T02:48:45.967Z,55.40
2018-08-30T02:51:12.413Z,55.40
2018-08-30T02:53:38.889Z,55.50
2018-08-30T02:56:05.400Z,55.60
2018-08-30T02:58:31.861Z,55.60
2018-08-30T03:00:58.325Z,55.50
2018-08-30T03:03:24.796Z,55.50
2018-08-30T03:05:51.243Z,55.50
2018-08-30T03:08:17.701Z,55.50
2018-08-30T03:10:44.159Z,56.10
2018-08-30T03:13:10.807Z,55.50
2018-08-30T03:15:37.260Z,55.50
2018-08-30T03:18:03.723Z,55.50
2018-08-30T03:20:30.715Z,55.50
2018-08-30T03:22:57.188Z,55.60
2018-08-30T03:25:23.672Z,55.50
2018-08-30T03:27:50.149Z,55.50
2018-08-30T03:30:16.655Z,55.50
2018-08-30T03:32:43.096Z,55.50
2018-08-30T03:35:09.570Z,55.40
2018-08-30T03:37:36.034Z,55.40
2018-08-30T03:40:02.514Z,55.50
2018-08-30T03:42:28.983Z,55.50
2018-08-30T03:44:55.438Z,55.60
2018-08-30T03:47:21.919Z,56.10
2018-08-30T03:49:48.374Z,56.20
2018-08-30T03:52:14.862Z,55.60
2018-08-30T03:54:41.286Z,55.60
2018-08-30T03:57:07.749Z,55.50
2018-08-30T03:59:34.210Z,55.60
2018-08-30T04:02:01.495Z,55.50
2018-08-30T04:04:28.388Z,55.40
2018-08-30T04:06:54.856Z,55.50
2018-08-30T04:09:22.222Z,55.50
2018-08-30T04:11:48.677Z,55.60
2018-08-30T04:14:15.146Z,55.50
2018-08-30T04:16:41.608Z,55.80
2018-08-30T04:19:08.250Z,55.60
2018-08-30T04:21:35.641Z,55.60
2018-08-30T04:24:03.001Z,55.70
2018-08-30T04:26:29.784Z,56.20
2018-08-30T04:28:56.238Z,55.60
2018-08-30T04:31:22.836Z,55.60
2018-08-30T04:33:49.291Z,55.60
2018-08-30T04:36:16.040Z,55.60
2018-08-30T04:38:42.588Z,55.60
2018-08-30T04:41:09.047Z,55.60
2018-08-30T04:43:35.552Z,55.60
2018-08-30T04:46:02.024Z,55.60
2018-08-30T04:48:28.462Z,55.60
2018-08-30T04:50:55.484Z,56.10
2018-08-30T04:53:21.937Z,55.60
2018-08-30T04:55:48.437Z,55.60
2018-08-30T04:58:14.948Z,55.60
2018-08-30T05:00:41.437Z,55.60
2018-08-30T05:03:07.902Z,55.60
2018-08-30T05:05:34.373Z,55.60
2018-08-30T05:08:00.857Z,55.80
2018-08-30T05:10:27.384Z,55.70
2018-08-30T05:12:54.375Z,55.70
2018-08-30T05:15:20.928Z,55.60
2018-08-30T05:17:48.062Z,56.20
2018-08-30T05:20:14.505Z,55.60
2018-08-30T05:22:40.959Z,55.60
2018-08-30T05:25:07.437Z,55.50
2018-08-30T05:27:33.929Z,55.50
2018-08-30T05:30:00.392Z,55.50
2018-08-30T05:32:26.896Z,55.60
2018-08-30T05:34:53.351Z,55.50
2018-08-30T05:37:19.803Z,55.60
2018-08-30T05:39:46.256Z,55.50
2018-08-30T05:42:12.709Z,54.70
2018-08-30T05:44:39.293Z,55.60
2018-08-30T05:47:05.754Z,54.80
2018-08-30T05:49:33.678Z,55.50
2018-08-30T05:52:00.140Z,55.50
2018-08-30T05:54:26.621Z,55.40
2018-08-30T05:56:53.141Z,55.30
2018-08-30T05:59:19.668Z,55.10
2018-08-30T06:01:46.164Z,55.10
2018-08-30T06:04:12.646Z,55.00
2018-08-30T06:06:39.974Z,55.00
2018-08-30T06:09:06.479Z,54.60
2018-08-30T06:11:32.960Z,54.80
2018-08-30T06:13:59.434Z,54.90
2018-08-30T06:16:25.880Z,54.80
2018-08-30T06:18:52.374Z,54.60
2018-08-30T06:21:18.865Z,54.60
2018-08-30T06:23:45.880Z,54.70
2018-08-30T06:26:12.345Z,54.60
2018-08-30T06:28:38.857Z,54.70
2018-08-30T06:31:05.315Z,54.70
2018-08-30T06:33:31.798Z,54.60
2018-08-30T06:35:58.239Z,54.70
2018-08-30T06:38:24.747Z,54.60
2018-08-30T06:40:51.225Z,54.60
2018-08-30T06:43:18.103Z,54.60
2018-08-30T06:45:44.615Z,54.30
2018-08-30T06:48:11.089Z,54.40
2018-08-30T06:50:37.572Z,54.20
2018-08-30T06:53:04.045Z,54.00
2018-08-30T06:55:30.487Z,53.90
2018-08-30T06:57:56.957Z,54.00
2018-08-30T07:00:23.419Z,54.10
2018-08-30T07:02:49.891Z,53.90
2018-08-30T07:05:16.409Z,53.90
2018-08-30T07:07:42.939Z,53.80
2018-08-30T07:10:09.433Z,53.70
2018-08-30T07:12:35.944Z,53.70
2018-08-30T07:15:02.577Z,53.60
2018-08-30T07:17:28.931Z,53.60
2018-08-30T07:20:04.919Z,53.60
2018-08-30T07:22:31.451Z,53.60
2018-08-30T07:24:57.929Z,53.50
2018-08-30T07:27:24.391Z,53.50
2018-08-30T07:29:51.365Z,53.40
2018-08-30T07:32:17.815Z,53.40
2018-08-30T07:34:44.313Z,53.50
2018-08-30T07:37:10.793Z,53.50
2018-08-30T07:39:37.266Z,53.60
2018-08-30T07:42:03.778Z,53.60
2018-08-30T07:44:30.355Z,53.60
2018-08-30T07:46:56.677Z,53.60
2018-08-30T07:49:23.631Z,53.60
2018-08-30T07:51:50.091Z,53.60
2018-08-30T07:54:16.568Z,53.70
2018-08-30T07:56:43.391Z,53.70
2018-08-30T07:59:13.110Z,53.80
2018-08-30T08:01:39.563Z,53.80
2018-08-30T08:04:06.046Z,53.90
2018-08-30T08:06:32.812Z,54.00
2018-08-30T08:08:59.733Z,54.00
2018-08-30T08:11:26.215Z,53.90
2018-08-30T08:13:52.684Z,53.90
2018-08-30T08:16:20.611Z,53.90
2018-08-30T08:18:47.102Z,53.90
2018-08-30T08:21:13.580Z,54.50
2018-08-30T08:23:40.120Z,53.90
2018-08-30T08:26:06.638Z,53.80
2018-08-30T08:28:33.104Z,53.80
2018-08-30T08:30:59.604Z,53.80
2018-08-30T08:33:26.110Z,53.80
2018-08-30T08:35:52.570Z,53.80
2018-08-30T08:38:19.072Z,53.80
2018-08-30T08:40:45.504Z,53.90
2018-08-30T08:43:12.058Z,53.90
2018-08-30T08:45:38.528Z,54.00
2018-08-30T08:48:05.010Z,54.00
2018-08-30T08:50:31.496Z,53.90
2018-08-30T08:52:57.965Z,53.90
2018-08-30T08:55:24.454Z,53.90
2018-08-30T08:57:50.943Z,53.80
2018-08-30T09:00:17.429Z,53.80
2018-08-30T09:02:43.966Z,53.80
2018-08-30T09:05:10.840Z,53.70
2018-08-30T09:07:37.304Z,53.70
2018-08-30T09:10:03.835Z,53.70
2018-08-30T09:12:30.282Z,53.80
2018-08-30T09:14:56.871Z,53.80
2018-08-30T09:17:23.320Z,53.80
2018-08-30T09:19:49.888Z,53.80
2018-08-30T09:22:16.382Z,53.80
2018-08-30T09:24:42.853Z,53.80
2018-08-30T09:27:09.365Z,53.70
2018-08-30T09:29:36.513Z,54.30
2018-08-30T09:32:03.046Z,53.80
2018-08-30T09:34:29.544Z,53.90
2018-08-30T09:36:56.009Z,53.90
2018-08-30T09:39:24.160Z,53.90
2018-08-30T09:41:50.626Z,54.00
2018-08-30T09:44:17.105Z,54.10
2018-08-30T09:46:43.601Z,54.70
2018-08-30T09:51:49.076Z,53.90
2018-08-30T09:54:15.546Z,53.70
2018-08-30T09:56:42.078Z,53.70
2018-08-30T09:59:09.605Z,53.60
2018-08-30T10:01:41.732Z,53.50
2018-08-30T10:04:08.384Z,53.40
2018-08-30T10:06:34.856Z,52.90
2018-08-30T10:09:01.339Z,52.80
2018-08-30T10:11:27.853Z,52.00
2018-08-30T10:13:54.309Z,52.30
2018-08-30T10:16:20.771Z,52.30
2018-08-30T10:18:47.226Z,52.30
2018-08-30T10:21:13.696Z,52.90
2018-08-30T10:23:40.179Z,52.30
2018-08-30T10:26:06.629Z,52.30
2018-08-30T10:28:33.095Z,52.30
2018-08-30T10:30:59.561Z,52.00
2018-08-30T10:33:26.053Z,52.30
2018-08-30T10:35:52.638Z,52.30
2018-08-30T10:38:19.122Z,52.30
2018-08-30T10:40:45.584Z,52.30
2018-08-30T10:43:12.200Z,52.30
2018-08-30T10:45:38.652Z,52.30
2018-08-30T10:48:05.136Z,52.30
2018-08-30T10:50:31.723Z,52.30
2018-08-30T10:52:58.194Z,52.30
2018-08-30T10:55:24.672Z,52.30
2018-08-30T10:57:51.154Z,52.30
2018-08-30T11:00:17.918Z,52.30
2018-08-30T11:02:44.389Z,52.30
2018-08-30T11:05:10.850Z,52.30
2018-08-30T11:07:37.335Z,52.30
2018-08-30T11:10:03.836Z,52.30
2018-08-30T11:12:30.415Z,52.30
2018-08-30T11:14:56.886Z,52.40
2018-08-30T11:17:23.681Z,52.40
2018-08-30T11:19:50.137Z,52.40
2018-08-30T11:22:16.624Z,52.40
2018-08-30T11:24:43.084Z,52.40
2018-08-30T11:27:09.584Z,52.40
2018-08-30T11:29:36.057Z,52.40
2018-08-30T11:32:02.571Z,52.40
2018-08-30T11:34:29.031Z,52.40
2018-08-30T11:36:55.521Z,52.40
2018-08-30T11:39:22.575Z,52.40
2018-08-30T11:41:49.191Z,52.40
2018-08-30T11:44:15.530Z,52.40
2018-08-30T11:46:41.989Z,52.40
2018-08-30T11:49:08.482Z,52.40
2018-08-30T11:51:34.939Z,52.60
2018-08-30T11:54:01.474Z,52.60
2018-08-30T11:56:28.352Z,52.70
2018-08-30T11:58:54.846Z,52.70
2018-08-30T12:01:21.435Z,52.70
2018-08-30T12:03:48.042Z,52.70
2018-08-30T12:06:14.792Z,52.70
2018-08-30T12:08:41.399Z,52.70
2018-08-30T12:11:07.987Z,52.60
2018-08-30T12:13:34.430Z,52.50
2018-08-30T12:16:00.888Z,52.70
2018-08-30T12:18:27.361Z,53.40
2018-08-30T12:20:53.899Z,52.70
2018-08-30T12:23:20.341Z,52.70
2018-08-30T12:25:46.806Z,52.80
2018-08-30T12:28:13.309Z,52.90
2018-08-30T12:30:39.790Z,52.90
2018-08-30T12:33:06.341Z,52.90
2018-08-30T12:35:32.818Z,52.90
2018-08-30T12:37:59.226Z,52.90
2018-08-30T12:40:25.749Z,52.90
2018-08-30T12:42:52.468Z,52.90
2018-08-30T12:45:19.151Z,52.90
2018-08-30T12:47:45.679Z,52.90
2018-08-30T12:50:12.161Z,52.90
2018-08-30T12:52:38.653Z,52.70
2018-08-30T12:55:05.182Z,52.70
2018-08-30T12:57:31.655Z,52.80
2018-08-30T12:59:58.220Z,52.80
2018-08-30T13:02:24.725Z,52.90
2018-08-30T13:04:51.281Z,53.50
2018-08-30T13:07:17.858Z,53.50
2018-08-30T13:09:44.368Z,52.90
2018-08-30T13:12:10.959Z,52.90
2018-08-30T13:14:37.468Z,52.90
2018-08-30T13:17:03.902Z,53.00
2018-08-30T13:19:30.585Z,53.20
2018-08-30T13:21:57.037Z,52.90
2018-08-30T13:24:23.491Z,52.90
2018-08-30T13:26:50.048Z,52.90
2018-08-30T13:29:16.668Z,52.80
2018-08-30T13:31:43.600Z,51.80
2018-08-30T13:34:10.259Z,52.30
2018-08-30T13:36:36.647Z,51.60
2018-08-30T13:39:03.339Z,51.00
2018-08-30T13:41:29.801Z,51.30
2018-08-30T13:43:56.298Z,52.00
2018-08-30T13:46:23.583Z,51.70
2018-08-30T13:48:49.809Z,51.20
2018-08-30T13:51:16.672Z,50.90
2018-08-30T13:53:43.177Z,50.60
2018-08-30T13:56:10.315Z,49.90
2018-08-30T13:58:36.937Z,50.50
2018-08-30T14:01:03.468Z,50.50
2018-08-30T14:03:29.649Z,50.00
2018-08-30T14:05:56.139Z,50.30
2018-08-30T14:08:23.955Z,50.40
2018-08-30T14:10:51.065Z,50.40
2018-08-30T14:13:17.516Z,50.50
2018-08-30T14:15:43.744Z,50.50
2018-08-30T14:18:10.304Z,50.50
2018-08-30T14:20:36.751Z,50.50
2018-08-30T14:23:03.493Z,50.60
2018-08-30T14:25:30.068Z,50.70
2018-08-30T14:27:56.524Z,50.80
2018-08-30T14:30:22.978Z,50.80
2018-08-30T14:32:49.591Z,50.90
2018-08-30T14:35:16.006Z,50.90
2018-08-30T14:37:42.529Z,50.90
2018-08-30T14:40:09.015Z,50.90
2018-08-30T14:42:35.457Z,51.00
2018-08-30T14:45:02.084Z,51.00
2018-08-30T14:47:28.489Z,51.00
2018-08-30T14:49:55.571Z,51.10
2018-08-30T14:52:22.009Z,51.10
2018-08-30T14:54:48.531Z,51.20
2018-08-30T14:57:15.079Z,51.20
2018-08-30T14:59:41.569Z,51.20
2018-08-30T15:02:08.065Z,51.20
2018-08-30T15:04:34.773Z,51.40
2018-08-30T15:07:01.241Z,51.30
2018-08-30T15:09:27.783Z,51.40
2018-08-30T15:11:54.231Z,51.40
2018-08-30T15:14:20.682Z,51.40
2018-08-30T15:16:47.184Z,51.40
2018-08-30T15:19:20.491Z,51.50
2018-08-30T15:21:46.947Z,51.50
2018-08-30T15:24:13.417Z,51.80
2018-08-30T15:26:39.912Z,51.80
2018-08-30T15:29:10.463Z,51.70
2018-08-30T15:31:36.943Z,51.60
2018-08-30T15:34:04.226Z,51.30
2018-08-30T15:36:30.545Z,51.30
2018-08-30T15:38:57.085Z,51.20
2018-08-30T15:41:23.775Z,51.80
2018-08-30T15:43:50.201Z,51.20
2018-08-30T15:46:16.679Z,51.30
2018-08-30T15:48:43.455Z,51.40
2018-08-30T15:51:09.691Z,51.60
2018-08-30T15:53:36.142Z,51.70
2018-08-30T15:56:02.606Z,51.80
2018-08-30T15:58:29.131Z,51.30
2018-08-30T16:00:55.592Z,51.50
2018-08-30T16:03:22.086Z,51.10
2018-08-30T16:05:48.580Z,50.00
2018-08-30T16:08:15.056Z,48.30
2018-08-30T16:10:41.613Z,48.50
2018-08-30T16:13:08.287Z,48.70
2018-08-30T16:15:34.690Z,49.50
2018-08-30T16:18:01.149Z,49.50
2018-08-30T16:20:27.610Z,49.40
2018-08-30T16:22:54.098Z,49.40
2018-08-30T16:25:20.567Z,49.60
2018-08-30T16:27:47.103Z,49.50
2018-08-30T16:30:13.558Z,49.40
2018-08-30T16:32:40.039Z,49.40
2018-08-30T16:35:06.622Z,49.40
2018-08-30T16:37:33.135Z,49.40
2018-08-30T16:39:59.738Z,49.40
2018-08-30T16:42:26.515Z,49.40
2018-08-30T16:44:53.018Z,48.80
2018-08-30T16:47:19.675Z,49.00
2018-08-30T16:49:47.052Z,49.20
2018-08-30T16:52:14.022Z,49.00
2018-08-30T16:54:40.504Z,49.10
2018-08-30T16:57:07.008Z,49.20
2018-08-30T16:59:33.548Z,49.20
2018-08-30T17:02:00.059Z,49.40
2018-08-30T17:04:26.520Z,49.40
2018-08-30T17:06:53.049Z,49.50
2018-08-30T17:09:19.503Z,49.50
2018-08-30T17:11:46.001Z,49.60
2018-08-30T17:14:12.572Z,49.80
2018-08-30T17:16:39.016Z,49.90
2018-08-30T17:19:05.507Z,49.80
2018-08-30T17:21:31.986Z,49.80
2018-08-30T17:23:58.465Z,49.70
2018-08-30T17:26:25.176Z,49.70
2018-08-30T17:28:51.577Z,49.70
2018-08-30T17:31:18.075Z,49.80
2018-08-30T17:33:44.569Z,49.90
2018-08-30T17:36:11.034Z,50.00
2018-08-30T17:38:37.488Z,49.90
2018-08-30T17:41:03.954Z,49.90
2018-08-30T17:43:30.449Z,49.90
2018-08-30T17:45:56.936Z,50.00
2018-08-30T17:48:23.438Z,50.30
2018-08-30T17:50:49.978Z,50.40
2018-08-30T17:53:16.439Z,50.40
2018-08-30T17:55:43.235Z,50.50
2018-08-30T17:58:09.922Z,50.70
2018-08-30T18:00:36.478Z,50.70
2018-08-30T18:03:02.985Z,50.70
2018-08-30T18:05:29.521Z,50.70
2018-08-30T18:07:56.018Z,50.70
2018-08-30T18:10:22.522Z,50.70
2018-08-30T18:12:49.079Z,50.80
2018-08-30T18:15:15.893Z,50.80
2018-08-30T18:17:43.068Z,50.70
2018-08-30T18:20:09.508Z,50.70
2018-08-30T18:22:36.057Z,50.70
2018-08-30T18:25:02.525Z,50.70
2018-08-30T18:27:29.048Z,50.70
2018-08-30T18:29:55.547Z,50.70
2018-08-30T18:32:22.030Z,50.70
2018-08-30T18:34:48.533Z,50.80
2018-08-30T18:37:15.203Z,50.90
2018-08-30T18:39:41.691Z,51.00
2018-08-30T18:42:08.140Z,51.00
2018-08-30T18:44:34.647Z,50.80
2018-08-30T18:47:01.157Z,50.90
2018-08-30T18:49:27.816Z,51.00
2018-08-30T18:51:54.363Z,51.20
2018-08-30T18:54:20.841Z,51.20
2018-08-30T18:56:47.340Z,51.30
2018-08-30T18:59:13.908Z,51.20
2018-08-30T19:01:40.537Z,51.10
2018-08-30T19:04:07.003Z,51.10
2018-08-30T19:06:33.504Z,51.00
2018-08-30T19:09:00.521Z,50.90
2018-08-30T19:11:27.505Z,50.80
2018-08-30T19:13:53.997Z,50.80
2018-08-30T19:16:26.261Z,50.80
2018-08-30T19:18:58.403Z,50.80
2018-08-30T19:21:24.902Z,50.80
2018-08-30T19:23:51.374Z,50.90
2018-08-30T19:26:18.101Z,50.90
2018-08-30T19:28:44.631Z,50.90
2018-08-30T19:31:11.761Z,51.10
2018-08-30T19:33:38.261Z,51.00
2018-08-30T19:36:10.528Z,51.20
2018-08-30T19:38:37.039Z,51.30
2018-08-30T19:41:09.123Z,51.40
2018-08-30T19:43:35.647Z,50.80
2018-08-30T19:46:02.740Z,51.40
2018-08-30T19:48:29.242Z,51.40
2018-08-30T19:50:55.673Z,51.50
2018-08-30T19:53:22.131Z,51.50
2018-08-30T19:55:48.657Z,51.50
2018-08-30T19:58:16.154Z,51.50
2018-08-30T20:00:42.628Z,51.60
2018-08-30T20:03:09.116Z,51.60
2018-08-30T20:05:35.740Z,51.60
2018-08-30T20:08:02.219Z,51.60
2018-08-30T20:10:28.721Z,51.70
2018-08-30T20:12:55.195Z,51.70
2018-08-30T20:15:21.697Z,51.80
2018-08-30T20:17:48.232Z,51.70
2018-08-30T20:20:14.906Z,51.70
2018-08-30T20:22:41.400Z,51.70
2018-08-30T20:25:07.896Z,51.80
2018-08-30T20:27:34.610Z,51.80
2018-08-30T20:30:01.119Z,51.70
2018-08-30T20:32:27.563Z,51.80
2018-08-30T20:34:54.038Z,51.80
2018-08-30T20:37:20.537Z,51.90
2018-08-30T20:39:47.018Z,52.50
2018-08-30T20:42:13.507Z,52.00
2018-08-30T20:44:40.030Z,52.00
2018-08-30T20:47:06.542Z,52.30
2018-08-30T20:49:33.162Z,52.10
2018-08-30T20:52:00.173Z,52.30
2018-08-30T20:54:27.176Z,52.10
2018-08-30T20:56:53.821Z,52.20
2018-08-30T20:59:20.357Z,52.30
2018-08-30T21:01:47.090Z,52.40
2018-08-30T21:04:13.606Z,52.30
2018-08-30T21:06:40.141Z,52.30
2018-08-30T21:09:06.591Z,52.40
2018-08-30T21:11:33.088Z,52.40
2018-08-30T21:13:59.683Z,52.40
2018-08-30T21:16:26.195Z,52.40
2018-08-30T21:18:52.723Z,52.40
2018-08-30T21:21:19.179Z,52.40
2018-08-30T21:23:45.768Z,52.40
2018-08-30T21:26:12.244Z,52.40
2018-08-30T21:28:38.710Z,52.40
2018-08-30T21:31:05.319Z,52.40
2018-08-30T21:33:31.855Z,52.40
2018-08-30T21:35:58.440Z,52.40
2018-08-30T21:38:25.021Z,52.40
2018-08-30T21:40:51.508Z,53.00
2018-08-30T21:43:18.113Z,52.40
2018-08-30T21:45:44.682Z,52.40
2018-08-30T21:48:11.235Z,52.60
2018-08-30T21:50:37.719Z,52.40
2018-08-30T21:53:04.203Z,52.40
2018-08-30T21:55:31.294Z,52.40
2018-08-30T21:57:57.787Z,52.40
2018-08-30T22:00:24.232Z,52.40
2018-08-30T22:02:50.891Z,52.40
2018-08-30T22:05:17.358Z,52.40
2018-08-30T22:07:43.851Z,52.40
2018-08-30T22:10:10.335Z,52.40
2018-08-30T22:12:36.861Z,52.40
2018-08-30T22:15:03.469Z,52.40
2018-08-30T22:17:29.990Z,52.40
2018-08-30T22:20:03.765Z,52.40
2018-08-30T22:22:30.363Z,51.50
2018-08-30T22:24:57.195Z,52.40
2018-08-30T22:27:23.671Z,52.40
2018-08-30T22:29:50.239Z,52.50
2018-08-30T22:32:17.430Z,52.50
2018-08-30T22:34:44.493Z,52.60
2018-08-30T22:37:11.001Z,52.50
2018-08-30T22:39:37.469Z,52.40
2018-08-30T22:42:03.989Z,52.60
2018-08-30T22:44:30.529Z,52.80
2018-08-30T22:46:57.032Z,52.60
2018-08-30T22:49:24.884Z,52.60
2018-08-30T22:51:51.489Z,52.70
2018-08-30T22:54:18.520Z,52.60
2018-08-30T22:56:44.992Z,52.60
2018-08-30T22:59:11.957Z,52.60
2018-08-30T23:01:38.509Z,52.70
2018-08-30T23:04:04.982Z,52.70
2018-08-30T23:06:31.472Z,52.70
2018-08-30T23:08:58.566Z,52.70
2018-08-30T23:11:25.109Z,52.70
2018-08-30T23:13:51.643Z,52.70
2018-08-30T23:16:18.744Z,52.80
2018-08-30T23:18:45.255Z,52.80
2018-08-30T23:21:11.806Z,52.70
2018-08-30T23:23:38.289Z,52.70
2018-08-30T23:26:04.757Z,52.80
2018-08-30T23:28:31.226Z,52.80
2018-08-30T23:30:57.710Z,53.40
2018-08-30T23:33:24.174Z,52.80
2018-08-30T23:35:50.712Z,52.70
2018-08-30T23:38:17.203Z,52.70
2018-08-30T23:40:43.686Z,52.80
2018-08-30T23:43:10.172Z,52.80
2018-08-30T23:45:36.657Z,53.40
2018-08-30T23:48:03.141Z,52.80
2018-08-30T23:50:29.600Z,52.80
2018-08-30T23:52:56.090Z,52.80
2018-08-30T23:55:22.542Z,52.80
2018-08-30T23:57:49.009Z,52.80
